sensor_id;sensor_type;location;lat;lon;timestamp;P1;durP1;ratioP1;P2;durP2;ratioP2
70213;SDS011;60138;55.808;37.078;2023-07-13T00:00:08;5.33;;;3.97;;
70213;SDS011;60138;55.808;37.078;2023-07-13T00:02:38;8.38;;;4.43;;
70213;SDS011;60138;55.808;37.078;2023-07-13T00:05:04;5.65;;;4.15;;
70213;SDS011;60138;55.808;37.078;2023-07-13T00:07:30;4.88;;;4.22;;
70213;SDS011;60138;55.808;37.078;2023-07-13T00:09:55;5.68;;;4.10;;
70213;SDS011;60138;55.808;37.078;2023-07-13T00:12:26;4.90;;;3.50;;
70213;SDS011;60138;55.808;37.078;2023-07-13T00:14:56;6.22;;;4.03;;
70213;SDS011;60138;55.808;37.078;2023-07-13T00:17:23;7.78;;;4.60;;
70213;SDS011;60138;55.808;37.078;2023-07-13T00:19:49;6.60;;;4.10;;
70213;SDS011;60138;55.808;37.078;2023-07-13T00:22:15;12.05;;;4.03;;
70213;SDS011;60138;55.808;37.078;2023-07-13T00:24:41;5.95;;;4.00;;
70213;SDS011;60138;55.808;37.078;2023-07-13T00:27:07;7.93;;;4.45;;
70213;SDS011;60138;55.808;37.078;2023-07-13T00:29:34;6.03;;;3.92;;
70213;SDS011;60138;55.808;37.078;2023-07-13T00:32:00;9.70;;;4.03;;
70213;SDS011;60138;55.808;37.078;2023-07-13T00:34:25;9.63;;;3.95;;
70213;SDS011;60138;55.808;37.078;2023-07-13T00:36:51;7.47;;;4.27;;
70213;SDS011;60138;55.808;37.078;2023-07-13T00:39:17;5.55;;;4.10;;
70213;SDS011;60138;55.808;37.078;2023-07-13T00:41:42;7.27;;;4.63;;
70213;SDS011;60138;55.808;37.078;2023-07-13T00:44:12;5.38;;;3.88;;
70213;SDS011;60138;55.808;37.078;2023-07-13T00:46:40;6.67;;;3.13;;
70213;SDS011;60138;55.808;37.078;2023-07-13T00:49:06;6.10;;;3.85;;
70213;SDS011;60138;55.808;37.078;2023-07-13T00:54:26;6.50;;;4.40;;
70213;SDS011;60138;55.808;37.078;2023-07-13T00:56:59;6.40;;;4.00;;
70213;SDS011;60138;55.808;37.078;2023-07-13T00:59:28;5.57;;;4.05;;
70213;SDS011;60138;55.808;37.078;2023-07-13T01:01:56;7.80;;;4.82;;
70213;SDS011;60138;55.808;37.078;2023-07-13T01:04:23;5.82;;;4.07;;
70213;SDS011;60138;55.808;37.078;2023-07-13T01:06:50;9.18;;;4.57;;
70213;SDS011;60138;55.808;37.078;2023-07-13T01:09:16;5.57;;;4.15;;
70213;SDS011;60138;55.808;37.078;2023-07-13T01:11:42;5.63;;;4.00;;
70213;SDS011;60138;55.808;37.078;2023-07-13T01:14:08;6.90;;;3.63;;
70213;SDS011;60138;55.808;37.078;2023-07-13T01:16:35;5.65;;;4.00;;
70213;SDS011;60138;55.808;37.078;2023-07-13T01:19:14;6.88;;;3.50;;
70213;SDS011;60138;55.808;37.078;2023-07-13T01:21:51;5.57;;;4.18;;
70213;SDS011;60138;55.808;37.078;2023-07-13T01:24:17;6.80;;;4.30;;
70213;SDS011;60138;55.808;37.078;2023-07-13T01:26:43;6.45;;;4.28;;
70213;SDS011;60138;55.808;37.078;2023-07-13T01:29:09;6.97;;;4.20;;
70213;SDS011;60138;55.808;37.078;2023-07-13T01:31:38;5.97;;;4.63;;
70213;SDS011;60138;55.808;37.078;2023-07-13T01:34:03;8.02;;;4.65;;
70213;SDS011;60138;55.808;37.078;2023-07-13T01:36:29;7.00;;;3.80;;
70213;SDS011;60138;55.808;37.078;2023-07-13T01:38:55;6.37;;;3.73;;
70213;SDS011;60138;55.808;37.078;2023-07-13T01:41:21;5.15;;;3.67;;
70213;SDS011;60138;55.808;37.078;2023-07-13T01:43:46;5.00;;;3.70;;
70213;SDS011;60138;55.808;37.078;2023-07-13T01:46:12;8.40;;;5.32;;
70213;SDS011;60138;55.808;37.078;2023-07-13T01:48:39;4.68;;;3.95;;
70213;SDS011;60138;55.808;37.078;2023-07-13T01:51:05;7.45;;;3.83;;
70213;SDS011;60138;55.808;37.078;2023-07-13T01:53:30;7.40;;;4.73;;
70213;SDS011;60138;55.808;37.078;2023-07-13T01:55:56;8.98;;;3.83;;
70213;SDS011;60138;55.808;37.078;2023-07-13T01:58:22;6.63;;;4.03;;
70213;SDS011;60138;55.808;37.078;2023-07-13T02:00:49;6.57;;;4.20;;
70213;SDS011;60138;55.808;37.078;2023-07-13T02:03:16;6.40;;;3.80;;
70213;SDS011;60138;55.808;37.078;2023-07-13T02:05:42;6.23;;;4.10;;
70213;SDS011;60138;55.808;37.078;2023-07-13T02:08:08;5.53;;;3.80;;
70213;SDS011;60138;55.808;37.078;2023-07-13T02:10:34;5.90;;;3.70;;
70213;SDS011;60138;55.808;37.078;2023-07-13T02:13:00;6.68;;;4.82;;
70213;SDS011;60138;55.808;37.078;2023-07-13T02:15:26;6.22;;;3.80;;
70213;SDS011;60138;55.808;37.078;2023-07-13T02:17:52;5.97;;;4.45;;
70213;SDS011;60138;55.808;37.078;2023-07-13T02:20:37;5.67;;;3.70;;
70213;SDS011;60138;55.808;37.078;2023-07-13T02:23:03;7.68;;;3.80;;
70213;SDS011;60138;55.808;37.078;2023-07-13T02:25:29;6.30;;;3.67;;
70213;SDS011;60138;55.808;37.078;2023-07-13T02:27:55;6.90;;;3.83;;
70213;SDS011;60138;55.808;37.078;2023-07-13T02:30:20;5.77;;;3.93;;
70213;SDS011;60138;55.808;37.078;2023-07-13T02:32:47;7.78;;;4.07;;
70213;SDS011;60138;55.808;37.078;2023-07-13T02:35:13;6.22;;;3.67;;
70213;SDS011;60138;55.808;37.078;2023-07-13T02:37:38;5.43;;;3.85;;
70213;SDS011;60138;55.808;37.078;2023-07-13T02:40:04;4.65;;;3.63;;
70213;SDS011;60138;55.808;37.078;2023-07-13T02:42:30;7.13;;;3.72;;
70213;SDS011;60138;55.808;37.078;2023-07-13T02:44:56;8.35;;;4.00;;
70213;SDS011;60138;55.808;37.078;2023-07-13T02:47:23;5.53;;;3.90;;
70213;SDS011;60138;55.808;37.078;2023-07-13T02:49:48;5.30;;;3.78;;
70213;SDS011;60138;55.808;37.078;2023-07-13T02:52:14;8.97;;;4.10;;
70213;SDS011;60138;55.808;37.078;2023-07-13T02:54:40;8.18;;;3.70;;
70213;SDS011;60138;55.808;37.078;2023-07-13T02:57:06;5.97;;;4.32;;
70213;SDS011;60138;55.808;37.078;2023-07-13T02:59:32;5.87;;;3.97;;
70213;SDS011;60138;55.808;37.078;2023-07-13T03:01:58;6.03;;;3.70;;
70213;SDS011;60138;55.808;37.078;2023-07-13T03:04:24;5.50;;;3.95;;
70213;SDS011;60138;55.808;37.078;2023-07-13T03:06:50;6.45;;;3.95;;
70213;SDS011;60138;55.808;37.078;2023-07-13T03:09:16;5.00;;;3.77;;
70213;SDS011;60138;55.808;37.078;2023-07-13T03:11:47;8.43;;;3.33;;
70213;SDS011;60138;55.808;37.078;2023-07-13T03:14:22;4.78;;;3.17;;
70213;SDS011;60138;55.808;37.078;2023-07-13T03:16:48;6.70;;;3.75;;
70213;SDS011;60138;55.808;37.078;2023-07-13T03:19:14;5.40;;;3.47;;
70213;SDS011;60138;55.808;37.078;2023-07-13T03:21:45;4.47;;;3.17;;
70213;SDS011;60138;55.808;37.078;2023-07-13T03:24:11;5.45;;;4.32;;
70213;SDS011;60138;55.808;37.078;2023-07-13T03:26:36;5.10;;;3.60;;
70213;SDS011;60138;55.808;37.078;2023-07-13T03:29:04;4.53;;;3.25;;
70213;SDS011;60138;55.808;37.078;2023-07-13T03:31:33;5.00;;;4.28;;
70213;SDS011;60138;55.808;37.078;2023-07-13T03:34:00;5.40;;;3.45;;
70213;SDS011;60138;55.808;37.078;2023-07-13T03:36:28;4.30;;;3.25;;
70213;SDS011;60138;55.808;37.078;2023-07-13T03:38:58;5.63;;;3.67;;
70213;SDS011;60138;55.808;37.078;2023-07-13T03:41:32;4.93;;;3.50;;
70213;SDS011;60138;55.808;37.078;2023-07-13T03:43:58;6.30;;;3.80;;
70213;SDS011;60138;55.808;37.078;2023-07-13T03:46:25;5.20;;;3.83;;
70213;SDS011;60138;55.808;37.078;2023-07-13T03:48:51;8.23;;;4.05;;
70213;SDS011;60138;55.808;37.078;2023-07-13T03:51:17;9.20;;;4.93;;
70213;SDS011;60138;55.808;37.078;2023-07-13T03:53:44;9.70;;;3.15;;
70213;SDS011;60138;55.808;37.078;2023-07-13T03:56:13;6.53;;;4.07;;
70213;SDS011;60138;55.808;37.078;2023-07-13T03:58:42;5.87;;;3.33;;
70213;SDS011;60138;55.808;37.078;2023-07-13T04:01:21;8.48;;;3.45;;
70213;SDS011;60138;55.808;37.078;2023-07-13T04:03:48;6.88;;;3.55;;
70213;SDS011;60138;55.808;37.078;2023-07-13T04:06:18;5.47;;;3.50;;
70213;SDS011;60138;55.808;37.078;2023-07-13T04:08:49;5.65;;;4.38;;
70213;SDS011;60138;55.808;37.078;2023-07-13T04:11:17;4.97;;;3.20;;
70213;SDS011;60138;55.808;37.078;2023-07-13T04:13:44;5.45;;;3.22;;
70213;SDS011;60138;55.808;37.078;2023-07-13T04:16:11;5.13;;;3.00;;
70213;SDS011;60138;55.808;37.078;2023-07-13T04:18:38;5.25;;;2.92;;
70213;SDS011;60138;55.808;37.078;2023-07-13T04:21:04;5.82;;;3.53;;
70213;SDS011;60138;55.808;37.078;2023-07-13T04:23:30;8.93;;;3.95;;
70213;SDS011;60138;55.808;37.078;2023-07-13T04:25:56;4.47;;;2.90;;
70213;SDS011;60138;55.808;37.078;2023-07-13T04:28:22;4.87;;;3.77;;
70213;SDS011;60138;55.808;37.078;2023-07-13T04:30:49;4.57;;;3.05;;
70213;SDS011;60138;55.808;37.078;2023-07-13T04:33:15;5.82;;;3.10;;
70213;SDS011;60138;55.808;37.078;2023-07-13T04:35:42;6.40;;;2.90;;
70213;SDS011;60138;55.808;37.078;2023-07-13T04:38:08;5.17;;;3.33;;
70213;SDS011;60138;55.808;37.078;2023-07-13T04:40:34;5.95;;;3.35;;
70213;SDS011;60138;55.808;37.078;2023-07-13T04:43:00;4.80;;;3.23;;
70213;SDS011;60138;55.808;37.078;2023-07-13T04:45:25;5.85;;;3.00;;
70213;SDS011;60138;55.808;37.078;2023-07-13T04:47:51;4.40;;;3.03;;
70213;SDS011;60138;55.808;37.078;2023-07-13T04:50:17;6.53;;;2.88;;
70213;SDS011;60138;55.808;37.078;2023-07-13T04:52:43;5.30;;;2.85;;
70213;SDS011;60138;55.808;37.078;2023-07-13T04:55:08;4.07;;;2.97;;
70213;SDS011;60138;55.808;37.078;2023-07-13T04:57:34;7.18;;;3.70;;
70213;SDS011;60138;55.808;37.078;2023-07-13T05:00:00;4.60;;;3.33;;
70213;SDS011;60138;55.808;37.078;2023-07-13T05:02:26;6.05;;;3.40;;
70213;SDS011;60138;55.808;37.078;2023-07-13T05:04:52;5.50;;;3.50;;
70213;SDS011;60138;55.808;37.078;2023-07-13T05:07:17;4.45;;;3.35;;
70213;SDS011;60138;55.808;37.078;2023-07-13T05:09:43;4.87;;;2.80;;
70213;SDS011;60138;55.808;37.078;2023-07-13T05:12:09;5.18;;;2.88;;
70213;SDS011;60138;55.808;37.078;2023-07-13T05:14:35;6.50;;;3.47;;
70213;SDS011;60138;55.808;37.078;2023-07-13T05:17:01;5.73;;;3.20;;
70213;SDS011;60138;55.808;37.078;2023-07-13T05:19:27;5.85;;;3.25;;
70213;SDS011;60138;55.808;37.078;2023-07-13T05:21:53;4.43;;;2.60;;
70213;SDS011;60138;55.808;37.078;2023-07-13T05:24:18;6.00;;;2.67;;
70213;SDS011;60138;55.808;37.078;2023-07-13T05:26:44;4.55;;;2.58;;
70213;SDS011;60138;55.808;37.078;2023-07-13T05:29:10;4.80;;;3.40;;
70213;SDS011;60138;55.808;37.078;2023-07-13T05:31:36;4.95;;;2.25;;
70213;SDS011;60138;55.808;37.078;2023-07-13T05:34:02;3.45;;;2.30;;
70213;SDS011;60138;55.808;37.078;2023-07-13T05:36:28;4.65;;;2.45;;
70213;SDS011;60138;55.808;37.078;2023-07-13T05:38:53;4.68;;;2.92;;
70213;SDS011;60138;55.808;37.078;2023-07-13T05:41:19;6.17;;;2.90;;
70213;SDS011;60138;55.808;37.078;2023-07-13T05:43:45;4.25;;;2.83;;
70213;SDS011;60138;55.808;37.078;2023-07-13T05:46:10;7.13;;;3.00;;
70213;SDS011;60138;55.808;37.078;2023-07-13T05:48:36;5.95;;;2.70;;
70213;SDS011;60138;55.808;37.078;2023-07-13T05:51:02;6.67;;;3.07;;
70213;SDS011;60138;55.808;37.078;2023-07-13T05:53:28;6.68;;;2.70;;
70213;SDS011;60138;55.808;37.078;2023-07-13T05:55:53;5.73;;;3.20;;
70213;SDS011;60138;55.808;37.078;2023-07-13T05:58:20;4.15;;;2.58;;
70213;SDS011;60138;55.808;37.078;2023-07-13T06:00:47;3.88;;;2.50;;
70213;SDS011;60138;55.808;37.078;2023-07-13T06:03:13;6.82;;;2.50;;
70213;SDS011;60138;55.808;37.078;2023-07-13T06:05:39;3.83;;;2.13;;
70213;SDS011;60138;55.808;37.078;2023-07-13T06:08:05;6.35;;;2.45;;
70213;SDS011;60138;55.808;37.078;2023-07-13T06:10:32;3.65;;;2.28;;
70213;SDS011;60138;55.808;37.078;2023-07-13T06:13:01;3.78;;;2.40;;
70213;SDS011;60138;55.808;37.078;2023-07-13T06:15:27;6.07;;;3.13;;
70213;SDS011;60138;55.808;37.078;2023-07-13T06:17:53;3.90;;;2.42;;
70213;SDS011;60138;55.808;37.078;2023-07-13T06:20:19;3.90;;;2.10;;
70213;SDS011;60138;55.808;37.078;2023-07-13T06:22:44;4.93;;;2.13;;
70213;SDS011;60138;55.808;37.078;2023-07-13T06:25:10;4.43;;;2.83;;
70213;SDS011;60138;55.808;37.078;2023-07-13T06:27:36;5.30;;;2.33;;
70213;SDS011;60138;55.808;37.078;2023-07-13T06:30:02;4.27;;;2.50;;
70213;SDS011;60138;55.808;37.078;2023-07-13T06:32:30;10.68;;;1.90;;
70213;SDS011;60138;55.808;37.078;2023-07-13T06:34:56;4.85;;;2.35;;
70213;SDS011;60138;55.808;37.078;2023-07-13T06:37:21;6.23;;;2.43;;
70213;SDS011;60138;55.808;37.078;2023-07-13T06:39:47;5.75;;;2.75;;
70213;SDS011;60138;55.808;37.078;2023-07-13T06:42:13;3.57;;;2.43;;
70213;SDS011;60138;55.808;37.078;2023-07-13T06:44:39;5.53;;;2.80;;
70213;SDS011;60138;55.808;37.078;2023-07-13T06:47:04;5.13;;;3.00;;
70213;SDS011;60138;55.808;37.078;2023-07-13T06:49:30;5.88;;;2.33;;
70213;SDS011;60138;55.808;37.078;2023-07-13T06:51:56;4.87;;;2.30;;
70213;SDS011;60138;55.808;37.078;2023-07-13T06:54:22;4.80;;;2.30;;
70213;SDS011;60138;55.808;37.078;2023-07-13T06:56:48;6.37;;;2.70;;
70213;SDS011;60138;55.808;37.078;2023-07-13T06:59:13;4.85;;;2.30;;
70213;SDS011;60138;55.808;37.078;2023-07-13T07:01:39;5.23;;;2.20;;
70213;SDS011;60138;55.808;37.078;2023-07-13T07:04:05;5.10;;;2.63;;
70213;SDS011;60138;55.808;37.078;2023-07-13T07:06:30;5.57;;;3.03;;
70213;SDS011;60138;55.808;37.078;2023-07-13T07:08:56;7.47;;;2.75;;
70213;SDS011;60138;55.808;37.078;2023-07-13T07:11:23;4.80;;;2.20;;
70213;SDS011;60138;55.808;37.078;2023-07-13T07:13:51;3.88;;;2.25;;
70213;SDS011;60138;55.808;37.078;2023-07-13T07:16:18;6.97;;;2.53;;
70213;SDS011;60138;55.808;37.078;2023-07-13T07:18:45;4.40;;;2.20;;
70213;SDS011;60138;55.808;37.078;2023-07-13T07:21:12;5.35;;;2.30;;
70213;SDS011;60138;55.808;37.078;2023-07-13T07:23:40;6.70;;;2.60;;
70213;SDS011;60138;55.808;37.078;2023-07-13T07:26:06;5.15;;;2.55;;
70213;SDS011;60138;55.808;37.078;2023-07-13T07:28:31;7.68;;;2.13;;
70213;SDS011;60138;55.808;37.078;2023-07-13T07:30:57;5.20;;;2.67;;
70213;SDS011;60138;55.808;37.078;2023-07-13T07:33:24;10.60;;;2.35;;
70213;SDS011;60138;55.808;37.078;2023-07-13T07:35:50;3.60;;;2.42;;
70213;SDS011;60138;55.808;37.078;2023-07-13T07:38:16;5.07;;;2.40;;
70213;SDS011;60138;55.808;37.078;2023-07-13T07:40:43;4.50;;;2.77;;
70213;SDS011;60138;55.808;37.078;2023-07-13T07:43:09;5.07;;;3.10;;
70213;SDS011;60138;55.808;37.078;2023-07-13T07:45:36;6.28;;;2.92;;
70213;SDS011;60138;55.808;37.078;2023-07-13T07:48:02;5.60;;;3.20;;
70213;SDS011;60138;55.808;37.078;2023-07-13T07:50:28;6.75;;;3.40;;
70213;SDS011;60138;55.808;37.078;2023-07-13T07:52:54;4.63;;;2.70;;
70213;SDS011;60138;55.808;37.078;2023-07-13T07:55:20;8.95;;;2.60;;
70213;SDS011;60138;55.808;37.078;2023-07-13T07:57:46;3.87;;;2.20;;
70213;SDS011;60138;55.808;37.078;2023-07-13T08:00:12;5.40;;;2.33;;
70213;SDS011;60138;55.808;37.078;2023-07-13T08:02:41;4.45;;;3.30;;
70213;SDS011;60138;55.808;37.078;2023-07-13T08:05:07;6.20;;;2.33;;
70213;SDS011;60138;55.808;37.078;2023-07-13T08:07:33;5.75;;;2.95;;
70213;SDS011;60138;55.808;37.078;2023-07-13T08:09:59;5.55;;;2.65;;
70213;SDS011;60138;55.808;37.078;2023-07-13T08:12:25;8.10;;;2.53;;
70213;SDS011;60138;55.808;37.078;2023-07-13T08:14:51;7.10;;;3.83;;
70213;SDS011;60138;55.808;37.078;2023-07-13T08:17:17;9.00;;;3.38;;
70213;SDS011;60138;55.808;37.078;2023-07-13T08:19:43;10.52;;;3.17;;
70213;SDS011;60138;55.808;37.078;2023-07-13T08:22:09;5.50;;;2.73;;
70213;SDS011;60138;55.808;37.078;2023-07-13T08:24:34;7.53;;;3.53;;
70213;SDS011;60138;55.808;37.078;2023-07-13T08:27:00;6.60;;;3.67;;
70213;SDS011;60138;55.808;37.078;2023-07-13T08:29:26;6.45;;;2.33;;
70213;SDS011;60138;55.808;37.078;2023-07-13T08:31:51;6.57;;;2.73;;
70213;SDS011;60138;55.808;37.078;2023-07-13T08:34:17;6.90;;;3.58;;
70213;SDS011;60138;55.808;37.078;2023-07-13T08:36:43;5.57;;;2.80;;
70213;SDS011;60138;55.808;37.078;2023-07-13T08:39:09;6.18;;;3.05;;
70213;SDS011;60138;55.808;37.078;2023-07-13T08:41:34;6.70;;;3.37;;
70213;SDS011;60138;55.808;37.078;2023-07-13T08:44:01;9.18;;;4.28;;
70213;SDS011;60138;55.808;37.078;2023-07-13T08:46:36;8.88;;;4.35;;
70213;SDS011;60138;55.808;37.078;2023-07-13T08:49:14;7.78;;;3.83;;
70213;SDS011;60138;55.808;37.078;2023-07-13T08:51:45;7.40;;;3.63;;
70213;SDS011;60138;55.808;37.078;2023-07-13T08:54:16;12.98;;;3.20;;
70213;SDS011;60138;55.808;37.078;2023-07-13T08:57:14;7.93;;;3.58;;
70213;SDS011;60138;55.808;37.078;2023-07-13T08:59:43;6.50;;;2.55;;
70213;SDS011;60138;55.808;37.078;2023-07-13T09:10:14;4.63;;;2.70;;
70213;SDS011;60138;55.808;37.078;2023-07-13T09:15:35;7.93;;;3.38;;
70213;SDS011;60138;55.808;37.078;2023-07-13T09:18:10;5.63;;;2.85;;
70213;SDS011;60138;55.808;37.078;2023-07-13T09:20:47;7.80;;;3.10;;
70213;SDS011;60138;55.808;37.078;2023-07-13T09:23:17;6.30;;;3.22;;
70213;SDS011;60138;55.808;37.078;2023-07-13T09:25:52;6.00;;;3.47;;
70213;SDS011;60138;55.808;37.078;2023-07-13T09:28:24;5.30;;;2.80;;
70213;SDS011;60138;55.808;37.078;2023-07-13T09:30:56;4.70;;;3.13;;
70213;SDS011;60138;55.808;37.078;2023-07-13T09:33:28;8.07;;;3.20;;
70213;SDS011;60138;55.808;37.078;2023-07-13T09:35:58;9.00;;;3.50;;
70213;SDS011;60138;55.808;37.078;2023-07-13T09:38:25;6.33;;;2.30;;
70213;SDS011;60138;55.808;37.078;2023-07-13T09:43:30;5.28;;;3.75;;
70213;SDS011;60138;55.808;37.078;2023-07-13T09:45:56;5.25;;;3.67;;
70213;SDS011;60138;55.808;37.078;2023-07-13T09:48:22;6.93;;;3.43;;
70213;SDS011;60138;55.808;37.078;2023-07-13T09:50:48;5.30;;;2.80;;
70213;SDS011;60138;55.808;37.078;2023-07-13T09:53:15;5.83;;;2.90;;
70213;SDS011;60138;55.808;37.078;2023-07-13T09:55:43;8.05;;;3.42;;
70213;SDS011;60138;55.808;37.078;2023-07-13T09:58:17;8.63;;;2.80;;
70213;SDS011;60138;55.808;37.078;2023-07-13T10:00:58;6.18;;;2.88;;
70213;SDS011;60138;55.808;37.078;2023-07-13T10:03:29;6.65;;;3.28;;
70213;SDS011;60138;55.808;37.078;2023-07-13T10:06:01;7.57;;;3.37;;
70213;SDS011;60138;55.808;37.078;2023-07-13T10:08:36;5.90;;;3.70;;
70213;SDS011;60138;55.808;37.078;2023-07-13T10:11:23;7.53;;;3.53;;
70213;SDS011;60138;55.808;37.078;2023-07-13T10:13:56;6.63;;;3.73;;
70213;SDS011;60138;55.808;37.078;2023-07-13T10:16:24;5.75;;;3.45;;
70213;SDS011;60138;55.808;37.078;2023-07-13T10:18:54;7.75;;;3.30;;
70213;SDS011;60138;55.808;37.078;2023-07-13T10:21:26;12.00;;;3.10;;
70213;SDS011;60138;55.808;37.078;2023-07-13T10:24:02;6.95;;;3.42;;
70213;SDS011;60138;55.808;37.078;2023-07-13T10:29:46;6.05;;;3.85;;
70213;SDS011;60138;55.808;37.078;2023-07-13T10:32:14;7.80;;;3.38;;
70213;SDS011;60138;55.808;37.078;2023-07-13T10:34:41;7.85;;;4.07;;
70213;SDS011;60138;55.808;37.078;2023-07-13T10:37:12;5.47;;;3.40;;
70213;SDS011;60138;55.808;37.078;2023-07-13T10:39:44;7.97;;;2.90;;
70213;SDS011;60138;55.808;37.078;2023-07-13T10:42:11;7.10;;;3.38;;
70213;SDS011;60138;55.808;37.078;2023-07-13T10:44:52;4.95;;;3.30;;
70213;SDS011;60138;55.808;37.078;2023-07-13T10:47:17;8.83;;;3.77;;
70213;SDS011;60138;55.808;37.078;2023-07-13T10:49:43;4.93;;;3.00;;
70213;SDS011;60138;55.808;37.078;2023-07-13T10:58:28;6.93;;;3.67;;
70213;SDS011;60138;55.808;37.078;2023-07-13T11:01:12;4.88;;;3.22;;
70213;SDS011;60138;55.808;37.078;2023-07-13T11:06:16;5.20;;;3.45;;
70213;SDS011;60138;55.808;37.078;2023-07-13T11:11:47;5.07;;;3.37;;
70213;SDS011;60138;55.808;37.078;2023-07-13T11:16:46;9.77;;;4.30;;
70213;SDS011;60138;55.808;37.078;2023-07-13T11:24:29;6.80;;;3.37;;
70213;SDS011;60138;55.808;37.078;2023-07-13T11:30:18;7.28;;;3.85;;
70213;SDS011;60138;55.808;37.078;2023-07-13T11:33:47;7.63;;;3.95;;
70213;SDS011;60138;55.808;37.078;2023-07-13T11:38:30;9.00;;;4.27;;
70213;SDS011;60138;55.808;37.078;2023-07-13T11:41:13;7.20;;;3.67;;
70213;SDS011;60138;55.808;37.078;2023-07-13T11:43:40;7.55;;;4.40;;
70213;SDS011;60138;55.808;37.078;2023-07-13T11:46:13;11.00;;;3.27;;
70213;SDS011;60138;55.808;37.078;2023-07-13T11:48:46;12.32;;;3.97;;
70213;SDS011;60138;55.808;37.078;2023-07-13T11:51:24;10.40;;;3.80;;
70213;SDS011;60138;55.808;37.078;2023-07-13T11:53:53;9.07;;;3.70;;
70213;SDS011;60138;55.808;37.078;2023-07-13T11:56:21;5.78;;;3.85;;
70213;SDS011;60138;55.808;37.078;2023-07-13T11:58:51;5.47;;;3.43;;
70213;SDS011;60138;55.808;37.078;2023-07-13T12:01:20;10.48;;;3.72;;
70213;SDS011;60138;55.808;37.078;2023-07-13T12:03:52;10.63;;;3.75;;
70213;SDS011;60138;55.808;37.078;2023-07-13T12:06:30;11.80;;;4.40;;
70213;SDS011;60138;55.808;37.078;2023-07-13T12:08:58;10.55;;;4.10;;
70213;SDS011;60138;55.808;37.078;2023-07-13T12:11:28;6.90;;;3.50;;
70213;SDS011;60138;55.808;37.078;2023-07-13T12:13:54;6.68;;;3.40;;
70213;SDS011;60138;55.808;37.078;2023-07-13T12:16:28;7.85;;;3.50;;
70213;SDS011;60138;55.808;37.078;2023-07-13T12:18:56;14.43;;;3.88;;
70213;SDS011;60138;55.808;37.078;2023-07-13T12:21:29;6.23;;;3.23;;
70213;SDS011;60138;55.808;37.078;2023-07-13T12:23:57;10.70;;;3.58;;
70213;SDS011;60138;55.808;37.078;2023-07-13T12:26:24;8.23;;;4.47;;
70213;SDS011;60138;55.808;37.078;2023-07-13T12:28:53;9.00;;;3.47;;
70213;SDS011;60138;55.808;37.078;2023-07-13T12:33:49;10.07;;;3.85;;
70213;SDS011;60138;55.808;37.078;2023-07-13T12:36:22;10.43;;;3.95;;
70213;SDS011;60138;55.808;37.078;2023-07-13T12:38:47;11.27;;;3.90;;
70213;SDS011;60138;55.808;37.078;2023-07-13T12:41:14;8.00;;;3.30;;
70213;SDS011;60138;55.808;37.078;2023-07-13T12:43:40;7.72;;;3.08;;
70213;SDS011;60138;55.808;37.078;2023-07-13T12:46:19;7.57;;;3.97;;
70213;SDS011;60138;55.808;37.078;2023-07-13T12:48:49;9.18;;;4.28;;
70213;SDS011;60138;55.808;37.078;2023-07-13T12:51:21;6.77;;;3.97;;
70213;SDS011;60138;55.808;37.078;2023-07-13T12:53:50;8.88;;;3.85;;
70213;SDS011;60138;55.808;37.078;2023-07-13T12:56:23;6.72;;;3.30;;
70213;SDS011;60138;55.808;37.078;2023-07-13T12:58:58;7.90;;;4.00;;
70213;SDS011;60138;55.808;37.078;2023-07-13T13:01:27;9.60;;;4.00;;
70213;SDS011;60138;55.808;37.078;2023-07-13T13:03:54;9.97;;;4.07;;
70213;SDS011;60138;55.808;37.078;2023-07-13T13:06:22;8.38;;;3.70;;
70213;SDS011;60138;55.808;37.078;2023-07-13T13:08:57;11.93;;;4.05;;
70213;SDS011;60138;55.808;37.078;2023-07-13T13:11:25;11.32;;;3.72;;
70213;SDS011;60138;55.808;37.078;2023-07-13T13:13:52;8.63;;;4.40;;
70213;SDS011;60138;55.808;37.078;2023-07-13T13:16:31;8.07;;;4.10;;
70213;SDS011;60138;55.808;37.078;2023-07-13T13:18:59;9.25;;;3.88;;
70213;SDS011;60138;55.808;37.078;2023-07-13T13:21:37;12.15;;;4.45;;
70213;SDS011;60138;55.808;37.078;2023-07-13T13:24:04;8.00;;;3.55;;
70213;SDS011;60138;55.808;37.078;2023-07-13T13:26:41;9.97;;;3.40;;
70213;SDS011;60138;55.808;37.078;2023-07-13T13:29:18;9.18;;;3.45;;
70213;SDS011;60138;55.808;37.078;2023-07-13T13:31:46;7.30;;;3.95;;
70213;SDS011;60138;55.808;37.078;2023-07-13T13:34:14;8.07;;;3.80;;
70213;SDS011;60138;55.808;37.078;2023-07-13T13:36:41;7.60;;;4.03;;
70213;SDS011;60138;55.808;37.078;2023-07-13T13:39:15;11.20;;;3.40;;
70213;SDS011;60138;55.808;37.078;2023-07-13T13:41:47;8.80;;;3.70;;
70213;SDS011;60138;55.808;37.078;2023-07-13T13:44:14;7.72;;;3.80;;
70213;SDS011;60138;55.808;37.078;2023-07-13T13:46:41;7.47;;;3.60;;
70213;SDS011;60138;55.808;37.078;2023-07-13T13:49:16;6.55;;;3.10;;
70213;SDS011;60138;55.808;37.078;2023-07-13T13:51:44;7.07;;;3.77;;
70213;SDS011;60138;55.808;37.078;2023-07-13T13:54:14;8.80;;;4.00;;
70213;SDS011;60138;55.808;37.078;2023-07-13T13:56:41;6.60;;;4.18;;
70213;SDS011;60138;55.808;37.078;2023-07-13T13:59:17;8.43;;;4.40;;
70213;SDS011;60138;55.808;37.078;2023-07-13T14:01:45;8.97;;;3.97;;
70213;SDS011;60138;55.808;37.078;2023-07-13T14:04:15;12.15;;;4.32;;
70213;SDS011;60138;55.808;37.078;2023-07-13T14:06:45;10.65;;;4.13;;
70213;SDS011;60138;55.808;37.078;2023-07-13T14:09:13;12.90;;;4.45;;
70213;SDS011;60138;55.808;37.078;2023-07-13T14:11:40;11.77;;;3.88;;
70213;SDS011;60138;55.808;37.078;2023-07-13T14:14:09;18.00;;;4.23;;
70213;SDS011;60138;55.808;37.078;2023-07-13T14:16:41;9.40;;;3.92;;
70213;SDS011;60138;55.808;37.078;2023-07-13T14:19:07;8.85;;;3.83;;
70213;SDS011;60138;55.808;37.078;2023-07-13T14:21:36;6.78;;;4.65;;
70213;SDS011;60138;55.808;37.078;2023-07-13T14:24:02;8.45;;;3.88;;
70213;SDS011;60138;55.808;37.078;2023-07-13T14:26:29;9.90;;;3.33;;
70213;SDS011;60138;55.808;37.078;2023-07-13T14:29:01;10.43;;;4.45;;
70213;SDS011;60138;55.808;37.078;2023-07-13T14:31:30;7.38;;;4.50;;
70213;SDS011;60138;55.808;37.078;2023-07-13T14:33:55;9.52;;;4.22;;
70213;SDS011;60138;55.808;37.078;2023-07-13T14:36:32;7.63;;;4.30;;
70213;SDS011;60138;55.808;37.078;2023-07-13T14:39:01;8.57;;;4.72;;
70213;SDS011;60138;55.808;37.078;2023-07-13T14:41:35;15.75;;;5.03;;
70213;SDS011;60138;55.808;37.078;2023-07-13T14:44:01;9.27;;;4.20;;
70213;SDS011;60138;55.808;37.078;2023-07-13T14:46:30;18.77;;;7.03;;
70213;SDS011;60138;55.808;37.078;2023-07-13T14:49:02;108.20;;;17.77;;
70213;SDS011;60138;55.808;37.078;2023-07-13T14:51:31;51.72;;;10.50;;
70213;SDS011;60138;55.808;37.078;2023-07-13T14:54:00;27.57;;;8.10;;
70213;SDS011;60138;55.808;37.078;2023-07-13T14:56:29;122.93;;;17.75;;
70213;SDS011;60138;55.808;37.078;2023-07-13T14:58:55;49.42;;;9.40;;
70213;SDS011;60138;55.808;37.078;2023-07-13T15:01:21;22.30;;;6.43;;
70213;SDS011;60138;55.808;37.078;2023-07-13T15:03:48;18.98;;;4.68;;
70213;SDS011;60138;55.808;37.078;2023-07-13T15:06:16;12.85;;;5.32;;
70213;SDS011;60138;55.808;37.078;2023-07-13T15:08:42;13.18;;;5.03;;
70213;SDS011;60138;55.808;37.078;2023-07-13T15:11:08;11.07;;;4.73;;
70213;SDS011;60138;55.808;37.078;2023-07-13T15:13:34;11.20;;;4.65;;
70213;SDS011;60138;55.808;37.078;2023-07-13T15:16:00;14.23;;;5.05;;
70213;SDS011;60138;55.808;37.078;2023-07-13T15:18:26;11.37;;;4.70;;
70213;SDS011;60138;55.808;37.078;2023-07-13T15:20:52;12.98;;;4.57;;
70213;SDS011;60138;55.808;37.078;2023-07-13T15:23:19;10.55;;;5.35;;
70213;SDS011;60138;55.808;37.078;2023-07-13T15:25:45;9.13;;;4.87;;